Saltar para o conteúdo principal

Portalegre

ID 1200571 · 39.2955, -7.4200 mapa

Última leitura · 2026-05-09 19:00 (Europe/Lisbon)

Temperatura
12.1 °C
Humidade
100 %
Pressão
1,008.3 hPa
Precipitação
0.1 mm
Radiação
587 W/m²
Velocidade do vento
16.2 km/h
Direcção do vento
SW · Sudoeste

Histórico de 24 horas

Hora (Europe/Lisbon) Temperatura Humidade Pressão Chuva Vento Direcção
2026-05-09 19:00 12.1 °C 100 % 1,008.3 0.1 mm 16.2 km/h SW
2026-05-09 18:00 12.9 °C 90 % 1,007.3 5.3 mm 12.6 km/h W
2026-05-09 17:00 15.1 °C 60 % 1,006.4 0.2 mm 19.4 km/h W
2026-05-09 16:00 15.4 °C 69 % 1,006.3 0.0 mm 12.2 km/h SW
2026-05-09 15:00 13.8 °C 86 % 1,006.5 0.9 mm 15.5 km/h SW
2026-05-09 14:00 13.9 °C 80 % 1,006.0 0.0 mm 12.6 km/h SW
2026-05-09 13:00 12.4 °C 100 % 1,005.9 0.1 mm 7.6 km/h S
2026-05-09 12:00 11.6 °C 100 % 1,004.9 1.6 mm 17.3 km/h SE
2026-05-09 11:00 11.0 °C 100 % 1,005.6 0.3 mm 16.2 km/h SE
2026-05-09 10:00 10.2 °C 100 % 1,005.8 0.3 mm 18.4 km/h SE
2026-05-09 09:00 9.7 °C 100 % 1,006.1 2.4 mm 16.9 km/h SE
2026-05-09 08:00 10.1 °C 100 % 1,005.8 1.4 mm 18.4 km/h SE
2026-05-09 07:00 10.3 °C 100 % 1,005.8 0.1 mm 18.4 km/h SE
2026-05-09 06:00 10.8 °C 91 % 1,006.1 0.0 mm 18.0 km/h SE
2026-05-09 05:00 10.8 °C 99 % 1,006.7 0.0 mm 14.4 km/h SE
2026-05-09 04:00 10.6 °C 100 % 1,007.4 0.0 mm 13.3 km/h SE
2026-05-09 03:00 10.4 °C 100 % 1,008.0 0.0 mm 14.0 km/h SE
2026-05-09 02:00 10.8 °C 100 % 1,008.6 0.2 mm 10.8 km/h SE
2026-05-09 01:00 11.6 °C 97 % 1,009.0 0.1 mm 7.6 km/h SE
2026-05-09 00:00 11.9 °C 87 % 1,009.2 0.0 mm 4.3 km/h SE
2026-05-08 23:00 12.2 °C 76 % 1,009.2 0.0 mm 2.2 km/h SW
2026-05-08 22:00 13.2 °C 64 % 1,008.6 0.0 mm 4.7 km/h SE
2026-05-08 21:00 15.8 °C 45 % 1,007.1 0.0 mm 5.4 km/h S
2026-05-08 20:00 16.5 °C 39 % 1,006.8 0.0 mm 6.5 km/h SE